sensor_id;sensor_type;location;lat;lon;timestamp;temperature;humidity
37356;DHT22;48747;50.250;18.848;2023-09-19T00:01:28;19.60;99.90
37356;DHT22;48747;50.250;18.848;2023-09-19T00:03:32;19.60;99.90
37356;DHT22;48747;50.250;18.848;2023-09-19T00:05:38;19.60;99.90
37356;DHT22;48747;50.250;18.848;2023-09-19T00:07:41;19.60;99.90
37356;DHT22;48747;50.250;18.848;2023-09-19T00:09:44;19.60;99.90
37356;DHT22;48747;50.250;18.848;2023-09-19T00:11:49;19.50;99.90
37356;DHT22;48747;50.250;18.848;2023-09-19T00:13:54;19.60;99.90
37356;DHT22;48747;50.250;18.848;2023-09-19T00:15:59;19.60;99.90
37356;DHT22;48747;50.250;18.848;2023-09-19T00:18:02;19.50;99.90
37356;DHT22;48747;50.250;18.848;2023-09-19T00:20:07;19.50;99.90
37356;DHT22;48747;50.250;18.848;2023-09-19T00:22:12;19.50;99.90
37356;DHT22;48747;50.250;18.848;2023-09-19T00:24:15;19.50;99.90
37356;DHT22;48747;50.250;18.848;2023-09-19T00:26:19;19.50;99.90
37356;DHT22;48747;50.250;18.848;2023-09-19T00:28:22;19.50;99.90
37356;DHT22;48747;50.250;18.848;2023-09-19T00:30:26;19.50;99.90
37356;DHT22;48747;50.250;18.848;2023-09-19T00:32:29;19.50;99.90
37356;DHT22;48747;50.250;18.848;2023-09-19T00:34:33;19.50;99.90
37356;DHT22;48747;50.250;18.848;2023-09-19T00:36:38;19.50;99.90
37356;DHT22;48747;50.250;18.848;2023-09-19T00:38:41;19.50;99.90
37356;DHT22;48747;50.250;18.848;2023-09-19T00:40:46;19.50;99.90
37356;DHT22;48747;50.250;18.848;2023-09-19T00:42:50;19.40;99.90
37356;DHT22;48747;50.250;18.848;2023-09-19T00:44:53;19.40;99.90
37356;DHT22;48747;50.250;18.848;2023-09-19T00:46:56;19.40;99.90
37356;DHT22;48747;50.250;18.848;2023-09-19T00:48:59;19.40;99.90
37356;DHT22;48747;50.250;18.848;2023-09-19T00:51:04;19.40;99.90
37356;DHT22;48747;50.250;18.848;2023-09-19T00:53:08;19.40;99.90
37356;DHT22;48747;50.250;18.848;2023-09-19T00:55:12;19.40;99.90
37356;DHT22;48747;50.250;18.848;2023-09-19T00:57:18;19.40;99.90
37356;DHT22;48747;50.250;18.848;2023-09-19T00:59:22;19.30;99.90
37356;DHT22;48747;50.250;18.848;2023-09-19T01:01:25;19.30;99.90
37356;DHT22;48747;50.250;18.848;2023-09-19T01:03:29;19.40;99.90
37356;DHT22;48747;50.250;18.848;2023-09-19T01:05:34;19.30;99.90
37356;DHT22;48747;50.250;18.848;2023-09-19T01:07:38;19.40;99.90
37356;DHT22;48747;50.250;18.848;2023-09-19T01:09:43;19.30;99.90
37356;DHT22;48747;50.250;18.848;2023-09-19T01:11:48;19.30;99.90
37356;DHT22;48747;50.250;18.848;2023-09-19T01:21:28;19.30;99.90
37356;DHT22;48747;50.250;18.848;2023-09-19T01:23:49;19.30;99.90
37356;DHT22;48747;50.250;18.848;2023-09-19T01:25:59;19.30;99.90
37356;DHT22;48747;50.250;18.848;2023-09-19T01:28:07;19.30;99.90
37356;DHT22;48747;50.250;18.848;2023-09-19T01:30:14;19.30;99.90
37356;DHT22;48747;50.250;18.848;2023-09-19T01:32:19;19.30;99.90
37356;DHT22;48747;50.250;18.848;2023-09-19T01:34:23;19.30;99.90
37356;DHT22;48747;50.250;18.848;2023-09-19T01:36:34;19.20;99.90
37356;DHT22;48747;50.250;18.848;2023-09-19T01:38:39;19.30;99.90
37356;DHT22;48747;50.250;18.848;2023-09-19T01:40:43;19.30;99.90
37356;DHT22;48747;50.250;18.848;2023-09-19T01:45:34;19.30;99.90
37356;DHT22;48747;50.250;18.848;2023-09-19T01:47:49;19.30;99.90
37356;DHT22;48747;50.250;18.848;2023-09-19T01:50:06;19.30;99.90
37356;DHT22;48747;50.250;18.848;2023-09-19T01:52:12;19.30;99.90
37356;DHT22;48747;50.250;18.848;2023-09-19T01:54:24;19.30;99.90
37356;DHT22;48747;50.250;18.848;2023-09-19T01:56:34;19.30;99.90
37356;DHT22;48747;50.250;18.848;2023-09-19T01:58:44;19.30;99.90
37356;DHT22;48747;50.250;18.848;2023-09-19T02:00:43;19.30;99.90
37356;DHT22;48747;50.250;18.848;2023-09-19T02:02:48;19.30;99.90
37356;DHT22;48747;50.250;18.848;2023-09-19T02:04:51;19.30;99.90
37356;DHT22;48747;50.250;18.848;2023-09-19T02:06:55;19.30;99.90
37356;DHT22;48747;50.250;18.848;2023-09-19T02:08:59;19.30;99.90
37356;DHT22;48747;50.250;18.848;2023-09-19T02:11:02;19.30;99.90
37356;DHT22;48747;50.250;18.848;2023-09-19T02:13:09;19.30;99.90
37356;DHT22;48747;50.250;18.848;2023-09-19T02:15:10;19.20;99.90
37356;DHT22;48747;50.250;18.848;2023-09-19T02:17:13;19.20;99.90
37356;DHT22;48747;50.250;18.848;2023-09-19T02:19:16;19.20;99.90
37356;DHT22;48747;50.250;18.848;2023-09-19T02:21:19;19.20;99.90
37356;DHT22;48747;50.250;18.848;2023-09-19T02:23:24;19.20;99.90
37356;DHT22;48747;50.250;18.848;2023-09-19T02:25:27;19.20;99.90
37356;DHT22;48747;50.250;18.848;2023-09-19T02:27:31;19.20;99.90
37356;DHT22;48747;50.250;18.848;2023-09-19T02:29:36;19.20;99.90
37356;DHT22;48747;50.250;18.848;2023-09-19T02:31:40;19.20;99.90
37356;DHT22;48747;50.250;18.848;2023-09-19T02:33:43;19.20;99.90
37356;DHT22;48747;50.250;18.848;2023-09-19T02:35:48;19.30;99.90
37356;DHT22;48747;50.250;18.848;2023-09-19T02:37:52;19.30;99.90
37356;DHT22;48747;50.250;18.848;2023-09-19T02:39:55;19.30;99.90
37356;DHT22;48747;50.250;18.848;2023-09-19T02:42:00;19.30;99.90
37356;DHT22;48747;50.250;18.848;2023-09-19T02:44:04;19.30;99.90
37356;DHT22;48747;50.250;18.848;2023-09-19T02:46:11;19.30;99.90
37356;DHT22;48747;50.250;18.848;2023-09-19T02:48:14;19.20;99.90
37356;DHT22;48747;50.250;18.848;2023-09-19T02:50:19;19.30;99.90
37356;DHT22;48747;50.250;18.848;2023-09-19T02:52:22;19.30;99.90
37356;DHT22;48747;50.250;18.848;2023-09-19T02:54:26;19.20;99.90
37356;DHT22;48747;50.250;18.848;2023-09-19T02:56:30;19.20;99.90
37356;DHT22;48747;50.250;18.848;2023-09-19T02:58:34;19.20;99.90
37356;DHT22;48747;50.250;18.848;2023-09-19T03:00:37;19.20;99.90
37356;DHT22;48747;50.250;18.848;2023-09-19T03:02:41;19.20;99.90
37356;DHT22;48747;50.250;18.848;2023-09-19T03:04:44;19.20;99.90
37356;DHT22;48747;50.250;18.848;2023-09-19T03:06:50;19.20;99.90
37356;DHT22;48747;50.250;18.848;2023-09-19T03:08:55;19.20;99.90
37356;DHT22;48747;50.250;18.848;2023-09-19T03:10:58;19.20;99.90
37356;DHT22;48747;50.250;18.848;2023-09-19T03:13:02;19.20;99.90
37356;DHT22;48747;50.250;18.848;2023-09-19T03:15:06;19.10;99.90
37356;DHT22;48747;50.250;18.848;2023-09-19T03:17:10;19.20;99.90
37356;DHT22;48747;50.250;18.848;2023-09-19T03:19:15;19.20;99.90
37356;DHT22;48747;50.250;18.848;2023-09-19T03:21:18;19.20;99.90
37356;DHT22;48747;50.250;18.848;2023-09-19T03:23:21;19.20;99.90
37356;DHT22;48747;50.250;18.848;2023-09-19T03:25:24;19.10;99.90
37356;DHT22;48747;50.250;18.848;2023-09-19T03:27:27;19.10;99.90
37356;DHT22;48747;50.250;18.848;2023-09-19T03:29:32;19.10;99.90
37356;DHT22;48747;50.250;18.848;2023-09-19T03:31:36;19.10;99.90
37356;DHT22;48747;50.250;18.848;2023-09-19T03:33:39;19.00;99.90
37356;DHT22;48747;50.250;18.848;2023-09-19T03:35:42;19.00;99.90
37356;DHT22;48747;50.250;18.848;2023-09-19T03:37:46;18.90;99.90
37356;DHT22;48747;50.250;18.848;2023-09-19T03:39:52;18.90;99.90
37356;DHT22;48747;50.250;18.848;2023-09-19T03:41:57;18.90;99.90
37356;DHT22;48747;50.250;18.848;2023-09-19T03:44:00;18.90;99.90
37356;DHT22;48747;50.250;18.848;2023-09-19T03:46:03;18.80;99.90
37356;DHT22;48747;50.250;18.848;2023-09-19T03:48:10;18.80;99.90
37356;DHT22;48747;50.250;18.848;2023-09-19T03:50:13;18.80;99.90
37356;DHT22;48747;50.250;18.848;2023-09-19T03:52:19;18.70;99.90
37356;DHT22;48747;50.250;18.848;2023-09-19T03:54:22;18.70;99.90
37356;DHT22;48747;50.250;18.848;2023-09-19T03:56:25;18.60;99.90
37356;DHT22;48747;50.250;18.848;2023-09-19T03:58:28;18.60;99.90
37356;DHT22;48747;50.250;18.848;2023-09-19T04:00:32;18.50;99.90
37356;DHT22;48747;50.250;18.848;2023-09-19T04:02:37;18.50;99.90
37356;DHT22;48747;50.250;18.848;2023-09-19T04:04:40;18.60;99.90
37356;DHT22;48747;50.250;18.848;2023-09-19T04:06:43;18.60;99.90
37356;DHT22;48747;50.250;18.848;2023-09-19T04:08:46;18.60;99.90
37356;DHT22;48747;50.250;18.848;2023-09-19T04:10:49;18.60;99.90
37356;DHT22;48747;50.250;18.848;2023-09-19T04:12:54;18.60;99.90
37356;DHT22;48747;50.250;18.848;2023-09-19T04:14:57;18.60;99.90
37356;DHT22;48747;50.250;18.848;2023-09-19T04:17:00;18.50;99.90
37356;DHT22;48747;50.250;18.848;2023-09-19T04:19:03;18.50;99.90
37356;DHT22;48747;50.250;18.848;2023-09-19T04:21:07;18.50;99.90
37356;DHT22;48747;50.250;18.848;2023-09-19T04:23:10;18.40;99.90
37356;DHT22;48747;50.250;18.848;2023-09-19T04:25:13;18.40;99.90
37356;DHT22;48747;50.250;18.848;2023-09-19T04:27:17;18.50;99.90
37356;DHT22;48747;50.250;18.848;2023-09-19T04:29:21;18.50;99.90
37356;DHT22;48747;50.250;18.848;2023-09-19T04:31:24;18.40;99.90
37356;DHT22;48747;50.250;18.848;2023-09-19T04:33:27;18.40;99.90
37356;DHT22;48747;50.250;18.848;2023-09-19T04:35:30;18.50;99.90
37356;DHT22;48747;50.250;18.848;2023-09-19T04:37:33;18.50;99.90
37356;DHT22;48747;50.250;18.848;2023-09-19T04:39:37;18.50;99.90
37356;DHT22;48747;50.250;18.848;2023-09-19T04:41:40;18.50;99.90
37356;DHT22;48747;50.250;18.848;2023-09-19T04:43:43;18.50;99.90
37356;DHT22;48747;50.250;18.848;2023-09-19T04:45:46;18.50;99.90
37356;DHT22;48747;50.250;18.848;2023-09-19T04:47:49;18.50;99.90
37356;DHT22;48747;50.250;18.848;2023-09-19T04:49:52;18.60;99.90
37356;DHT22;48747;50.250;18.848;2023-09-19T04:51:56;18.50;99.90
37356;DHT22;48747;50.250;18.848;2023-09-19T04:53:59;18.60;99.90
37356;DHT22;48747;50.250;18.848;2023-09-19T04:56:02;18.60;99.90
37356;DHT22;48747;50.250;18.848;2023-09-19T04:58:05;18.60;99.90
37356;DHT22;48747;50.250;18.848;2023-09-19T05:00:09;18.70;99.90
37356;DHT22;48747;50.250;18.848;2023-09-19T05:02:14;18.70;99.90
37356;DHT22;48747;50.250;18.848;2023-09-19T05:04:17;18.80;99.90
37356;DHT22;48747;50.250;18.848;2023-09-19T05:06:20;18.80;99.90
37356;DHT22;48747;50.250;18.848;2023-09-19T05:08:23;18.90;99.90
37356;DHT22;48747;50.250;18.848;2023-09-19T05:10:27;18.80;99.90
37356;DHT22;48747;50.250;18.848;2023-09-19T05:12:32;18.80;99.90
37356;DHT22;48747;50.250;18.848;2023-09-19T05:14:36;18.70;99.90
37356;DHT22;48747;50.250;18.848;2023-09-19T05:16:39;18.70;99.90
37356;DHT22;48747;50.250;18.848;2023-09-19T05:18:42;18.70;99.90
37356;DHT22;48747;50.250;18.848;2023-09-19T05:20:45;18.70;99.90
37356;DHT22;48747;50.250;18.848;2023-09-19T05:22:48;18.70;99.90
37356;DHT22;48747;50.250;18.848;2023-09-19T05:24:53;18.80;99.90
37356;DHT22;48747;50.250;18.848;2023-09-19T05:26:56;18.80;99.90
37356;DHT22;48747;50.250;18.848;2023-09-19T05:28:59;18.70;99.90
37356;DHT22;48747;50.250;18.848;2023-09-19T05:31:04;18.70;99.90
37356;DHT22;48747;50.250;18.848;2023-09-19T05:33:07;18.70;99.90
37356;DHT22;48747;50.250;18.848;2023-09-19T05:35:10;18.70;99.90
37356;DHT22;48747;50.250;18.848;2023-09-19T05:37:15;18.70;99.90
37356;DHT22;48747;50.250;18.848;2023-09-19T05:39:18;18.70;99.90
37356;DHT22;48747;50.250;18.848;2023-09-19T05:41:21;18.70;99.90
37356;DHT22;48747;50.250;18.848;2023-09-19T05:43:24;18.70;99.90
37356;DHT22;48747;50.250;18.848;2023-09-19T05:45:27;18.70;99.90
37356;DHT22;48747;50.250;18.848;2023-09-19T05:47:30;18.60;99.90
37356;DHT22;48747;50.250;18.848;2023-09-19T05:49:33;18.60;99.90
37356;DHT22;48747;50.250;18.848;2023-09-19T05:51:36;18.60;99.90
37356;DHT22;48747;50.250;18.848;2023-09-19T05:53:39;18.60;99.90
37356;DHT22;48747;50.250;18.848;2023-09-19T05:55:44;18.60;99.90
37356;DHT22;48747;50.250;18.848;2023-09-19T05:57:51;18.60;99.90
37356;DHT22;48747;50.250;18.848;2023-09-19T05:59:55;18.60;99.90
37356;DHT22;48747;50.250;18.848;2023-09-19T06:01:58;18.60;99.90
37356;DHT22;48747;50.250;18.848;2023-09-19T06:04:01;18.60;99.90
37356;DHT22;48747;50.250;18.848;2023-09-19T06:06:04;18.60;99.90
37356;DHT22;48747;50.250;18.848;2023-09-19T06:08:10;18.60;99.90
37356;DHT22;48747;50.250;18.848;2023-09-19T06:10:13;18.60;99.90
37356;DHT22;48747;50.250;18.848;2023-09-19T06:12:16;18.60;99.90
37356;DHT22;48747;50.250;18.848;2023-09-19T06:14:19;18.60;99.90
37356;DHT22;48747;50.250;18.848;2023-09-19T06:16:22;18.60;99.90
37356;DHT22;48747;50.250;18.848;2023-09-19T06:18:26;18.60;99.90
37356;DHT22;48747;50.250;18.848;2023-09-19T06:20:31;18.50;99.90
37356;DHT22;48747;50.250;18.848;2023-09-19T06:22:35;18.60;99.90
37356;DHT22;48747;50.250;18.848;2023-09-19T06:24:38;18.60;99.90
37356;DHT22;48747;50.250;18.848;2023-09-19T06:26:42;18.60;99.90
37356;DHT22;48747;50.250;18.848;2023-09-19T06:28:46;18.60;99.90
37356;DHT22;48747;50.250;18.848;2023-09-19T06:30:49;18.70;99.90
37356;DHT22;48747;50.250;18.848;2023-09-19T06:32:59;18.70;99.90
37356;DHT22;48747;50.250;18.848;2023-09-19T06:35:02;18.80;99.90
37356;DHT22;48747;50.250;18.848;2023-09-19T06:37:07;18.80;99.90
37356;DHT22;48747;50.250;18.848;2023-09-19T06:39:10;18.90;99.90
37356;DHT22;48747;50.250;18.848;2023-09-19T06:41:14;18.90;99.90
37356;DHT22;48747;50.250;18.848;2023-09-19T06:43:18;18.90;99.90
37356;DHT22;48747;50.250;18.848;2023-09-19T06:45:21;18.90;99.90
37356;DHT22;48747;50.250;18.848;2023-09-19T06:47:25;19.00;99.90
37356;DHT22;48747;50.250;18.848;2023-09-19T06:49:28;19.00;99.90
37356;DHT22;48747;50.250;18.848;2023-09-19T06:51:31;19.00;99.90
37356;DHT22;48747;50.250;18.848;2023-09-19T06:53:34;19.10;99.90
37356;DHT22;48747;50.250;18.848;2023-09-19T06:55:38;19.10;99.90
37356;DHT22;48747;50.250;18.848;2023-09-19T06:57:41;19.10;99.90
37356;DHT22;48747;50.250;18.848;2023-09-19T06:59:45;19.10;99.90
37356;DHT22;48747;50.250;18.848;2023-09-19T07:01:48;19.10;99.90
37356;DHT22;48747;50.250;18.848;2023-09-19T07:03:52;19.10;99.90
37356;DHT22;48747;50.250;18.848;2023-09-19T07:05:55;19.10;99.90
37356;DHT22;48747;50.250;18.848;2023-09-19T07:08:00;19.10;99.90
37356;DHT22;48747;50.250;18.848;2023-09-19T07:10:04;19.10;99.90
37356;DHT22;48747;50.250;18.848;2023-09-19T07:12:07;19.00;99.90
37356;DHT22;48747;50.250;18.848;2023-09-19T07:14:10;19.00;99.90
37356;DHT22;48747;50.250;18.848;2023-09-19T07:16:13;19.00;99.90
37356;DHT22;48747;50.250;18.848;2023-09-19T07:18:18;19.10;99.90
37356;DHT22;48747;50.250;18.848;2023-09-19T07:20:23;19.10;99.90
37356;DHT22;48747;50.250;18.848;2023-09-19T07:22:27;19.10;99.90
37356;DHT22;48747;50.250;18.848;2023-09-19T07:24:30;19.10;99.90
37356;DHT22;48747;50.250;18.848;2023-09-19T07:26:34;19.20;99.90
37356;DHT22;48747;50.250;18.848;2023-09-19T07:28:37;19.30;99.90
37356;DHT22;48747;50.250;18.848;2023-09-19T07:30:41;19.30;99.90
37356;DHT22;48747;50.250;18.848;2023-09-19T07:32:44;19.30;99.90
37356;DHT22;48747;50.250;18.848;2023-09-19T07:34:47;19.40;99.90
37356;DHT22;48747;50.250;18.848;2023-09-19T07:36:50;19.30;99.90
37356;DHT22;48747;50.250;18.848;2023-09-19T07:38:53;19.30;99.90
37356;DHT22;48747;50.250;18.848;2023-09-19T07:41:03;19.30;99.90
37356;DHT22;48747;50.250;18.848;2023-09-19T07:43:07;19.20;99.90
37356;DHT22;48747;50.250;18.848;2023-09-19T07:45:11;19.20;99.90
37356;DHT22;48747;50.250;18.848;2023-09-19T07:47:18;19.20;99.90
37356;DHT22;48747;50.250;18.848;2023-09-19T07:49:23;19.10;99.90
37356;DHT22;48747;50.250;18.848;2023-09-19T07:51:27;19.20;99.90
37356;DHT22;48747;50.250;18.848;2023-09-19T07:53:31;19.20;99.90
37356;DHT22;48747;50.250;18.848;2023-09-19T07:55:35;19.10;99.90
37356;DHT22;48747;50.250;18.848;2023-09-19T07:57:38;19.20;99.90
37356;DHT22;48747;50.250;18.848;2023-09-19T07:59:43;19.20;99.90
37356;DHT22;48747;50.250;18.848;2023-09-19T08:01:46;19.10;99.90
37356;DHT22;48747;50.250;18.848;2023-09-19T08:03:50;19.20;99.90
37356;DHT22;48747;50.250;18.848;2023-09-19T08:05:53;19.20;99.90
37356;DHT22;48747;50.250;18.848;2023-09-19T08:07:58;19.10;99.90
37356;DHT22;48747;50.250;18.848;2023-09-19T08:10:02;19.10;99.90
37356;DHT22;48747;50.250;18.848;2023-09-19T08:12:06;19.00;99.90
37356;DHT22;48747;50.250;18.848;2023-09-19T08:14:11;19.00;99.90
37356;DHT22;48747;50.250;18.848;2023-09-19T08:16:16;19.00;99.90
37356;DHT22;48747;50.250;18.848;2023-09-19T08:18:21;19.00;99.90
37356;DHT22;48747;50.250;18.848;2023-09-19T08:20:24;19.00;99.90
37356;DHT22;48747;50.250;18.848;2023-09-19T08:22:27;18.90;99.90
37356;DHT22;48747;50.250;18.848;2023-09-19T08:24:31;19.00;99.90
37356;DHT22;48747;50.250;18.848;2023-09-19T08:26:36;19.00;99.90
37356;DHT22;48747;50.250;18.848;2023-09-19T08:28:39;18.90;99.90
37356;DHT22;48747;50.250;18.848;2023-09-19T08:30:47;18.90;99.90
37356;DHT22;48747;50.250;18.848;2023-09-19T08:32:50;18.90;99.90
37356;DHT22;48747;50.250;18.848;2023-09-19T08:34:53;18.90;99.90
37356;DHT22;48747;50.250;18.848;2023-09-19T08:36:56;18.90;99.90
37356;DHT22;48747;50.250;18.848;2023-09-19T08:38:59;18.90;99.90
37356;DHT22;48747;50.250;18.848;2023-09-19T08:41:07;18.90;99.90
37356;DHT22;48747;50.250;18.848;2023-09-19T08:43:10;18.90;99.90
37356;DHT22;48747;50.250;18.848;2023-09-19T08:45:15;19.00;99.90
37356;DHT22;48747;50.250;18.848;2023-09-19T08:47:20;19.00;99.90
37356;DHT22;48747;50.250;18.848;2023-09-19T08:52:06;19.10;99.90
37356;DHT22;48747;50.250;18.848;2023-09-19T08:54:08;19.20;99.90
37356;DHT22;48747;50.250;18.848;2023-09-19T08:56:15;19.20;99.90
37356;DHT22;48747;50.250;18.848;2023-09-19T08:58:19;19.30;99.90
37356;DHT22;48747;50.250;18.848;2023-09-19T09:00:25;19.30;99.90
37356;DHT22;48747;50.250;18.848;2023-09-19T09:02:30;19.30;99.90
37356;DHT22;48747;50.250;18.848;2023-09-19T09:04:36;19.40;99.90
37356;DHT22;48747;50.250;18.848;2023-09-19T09:06:42;19.40;99.90
37356;DHT22;48747;50.250;18.848;2023-09-19T09:08:47;19.50;99.90
37356;DHT22;48747;50.250;18.848;2023-09-19T09:10:50;19.50;99.90
37356;DHT22;48747;50.250;18.848;2023-09-19T09:12:53;19.50;99.90
37356;DHT22;48747;50.250;18.848;2023-09-19T09:15:00;19.60;99.90
37356;DHT22;48747;50.250;18.848;2023-09-19T09:17:05;19.60;99.90
37356;DHT22;48747;50.250;18.848;2023-09-19T09:19:09;19.60;99.90
37356;DHT22;48747;50.250;18.848;2023-09-19T09:21:13;19.70;99.90
37356;DHT22;48747;50.250;18.848;2023-09-19T09:23:17;19.80;99.90
37356;DHT22;48747;50.250;18.848;2023-09-19T09:25:21;19.80;99.90
37356;DHT22;48747;50.250;18.848;2023-09-19T09:27:27;19.80;99.90
37356;DHT22;48747;50.250;18.848;2023-09-19T09:29:47;19.80;99.90
37356;DHT22;48747;50.250;18.848;2023-09-19T09:31:53;19.80;99.90
37356;DHT22;48747;50.250;18.848;2023-09-19T09:33:56;19.80;99.90
37356;DHT22;48747;50.250;18.848;2023-09-19T09:36:01;19.90;99.90
37356;DHT22;48747;50.250;18.848;2023-09-19T09:38:05;19.90;99.90
37356;DHT22;48747;50.250;18.848;2023-09-19T09:40:10;19.90;99.90
37356;DHT22;48747;50.250;18.848;2023-09-19T09:42:32;20.00;99.90
37356;DHT22;48747;50.250;18.848;2023-09-19T09:44:36;20.00;99.90
37356;DHT22;48747;50.250;18.848;2023-09-19T09:46:42;20.10;99.90
37356;DHT22;48747;50.250;18.848;2023-09-19T09:49:01;20.20;99.90
37356;DHT22;48747;50.250;18.848;2023-09-19T09:51:29;20.20;99.90
37356;DHT22;48747;50.250;18.848;2023-09-19T09:53:25;20.10;99.90
37356;DHT22;48747;50.250;18.848;2023-09-19T09:56:17;20.10;99.90
37356;DHT22;48747;50.250;18.848;2023-09-19T09:57:37;20.10;99.90
37356;DHT22;48747;50.250;18.848;2023-09-19T09:59:52;20.10;99.90
37356;DHT22;48747;50.250;18.848;2023-09-19T10:01:55;20.00;99.90
37356;DHT22;48747;50.250;18.848;2023-09-19T10:04:00;20.00;99.90
37356;DHT22;48747;50.250;18.848;2023-09-19T10:06:03;19.90;99.90
37356;DHT22;48747;50.250;18.848;2023-09-19T10:08:12;19.90;99.90
37356;DHT22;48747;50.250;18.848;2023-09-19T10:10:31;19.90;99.90
37356;DHT22;48747;50.250;18.848;2023-09-19T10:12:41;19.90;99.90
37356;DHT22;48747;50.250;18.848;2023-09-19T10:14:45;19.80;99.90
37356;DHT22;48747;50.250;18.848;2023-09-19T10:16:49;19.80;99.90
37356;DHT22;48747;50.250;18.848;2023-09-19T10:18:54;19.70;99.90
37356;DHT22;48747;50.250;18.848;2023-09-19T10:21:01;19.70;99.90
37356;DHT22;48747;50.250;18.848;2023-09-19T10:23:08;19.70;99.90
37356;DHT22;48747;50.250;18.848;2023-09-19T10:25:13;19.70;99.90
37356;DHT22;48747;50.250;18.848;2023-09-19T10:27:16;19.60;99.90
37356;DHT22;48747;50.250;18.848;2023-09-19T10:29:22;19.70;99.90
37356;DHT22;48747;50.250;18.848;2023-09-19T10:31:27;19.60;99.90
37356;DHT22;48747;50.250;18.848;2023-09-19T10:33:35;19.60;99.90
37356;DHT22;48747;50.250;18.848;2023-09-19T10:35:43;19.70;99.90
37356;DHT22;48747;50.250;18.848;2023-09-19T10:37:48;19.60;99.90
37356;DHT22;48747;50.250;18.848;2023-09-19T10:39:53;19.60;99.90
37356;DHT22;48747;50.250;18.848;2023-09-19T10:42:01;19.60;99.90
37356;DHT22;48747;50.250;18.848;2023-09-19T10:44:05;19.60;99.90
37356;DHT22;48747;50.250;18.848;2023-09-19T10:46:08;19.60;99.90
37356;DHT22;48747;50.250;18.848;2023-09-19T10:48:13;19.60;99.90
37356;DHT22;48747;50.250;18.848;2023-09-19T10:50:23;19.50;99.90
37356;DHT22;48747;50.250;18.848;2023-09-19T10:52:26;19.40;99.90
37356;DHT22;48747;50.250;18.848;2023-09-19T10:54:33;19.30;99.90
37356;DHT22;48747;50.250;18.848;2023-09-19T10:56:42;19.30;99.90
37356;DHT22;48747;50.250;18.848;2023-09-19T10:58:43;19.20;99.90
37356;DHT22;48747;50.250;18.848;2023-09-19T11:00:54;19.20;99.90
37356;DHT22;48747;50.250;18.848;2023-09-19T11:05:14;19.20;99.90
37356;DHT22;48747;50.250;18.848;2023-09-19T11:07:17;19.10;99.90
37356;DHT22;48747;50.250;18.848;2023-09-19T11:09:21;19.10;99.90
37356;DHT22;48747;50.250;18.848;2023-09-19T11:11:42;19.10;99.90
37356;DHT22;48747;50.250;18.848;2023-09-19T11:13:48;19.20;99.90
37356;DHT22;48747;50.250;18.848;2023-09-19T11:18:39;19.10;99.90
37356;DHT22;48747;50.250;18.848;2023-09-19T11:22:22;19.20;99.90
37356;DHT22;48747;50.250;18.848;2023-09-19T11:24:30;19.20;99.90
37356;DHT22;48747;50.250;18.848;2023-09-19T11:26:45;19.20;99.90
37356;DHT22;48747;50.250;18.848;2023-09-19T11:28:55;19.20;99.90
37356;DHT22;48747;50.250;18.848;2023-09-19T11:30:57;19.30;99.90
37356;DHT22;48747;50.250;18.848;2023-09-19T11:36:01;19.40;99.90
37356;DHT22;48747;50.250;18.848;2023-09-19T11:38:10;19.50;99.90
37356;DHT22;48747;50.250;18.848;2023-09-19T11:40:11;19.50;99.90
37356;DHT22;48747;50.250;18.848;2023-09-19T11:42:46;19.50;99.90
37356;DHT22;48747;50.250;18.848;2023-09-19T11:44:58;19.40;99.90
37356;DHT22;48747;50.250;18.848;2023-09-19T11:47:02;19.40;99.90
37356;DHT22;48747;50.250;18.848;2023-09-19T11:49:11;19.50;99.90
37356;DHT22;48747;50.250;18.848;2023-09-19T11:51:18;19.60;99.90
37356;DHT22;48747;50.250;18.848;2023-09-19T11:53:24;19.70;99.90
37356;DHT22;48747;50.250;18.848;2023-09-19T11:55:29;19.90;99.90
37356;DHT22;48747;50.250;18.848;2023-09-19T11:57:36;20.00;99.90
37356;DHT22;48747;50.250;18.848;2023-09-19T11:59:41;20.00;99.90
37356;DHT22;48747;50.250;18.848;2023-09-19T12:01:50;20.10;99.90
37356;DHT22;48747;50.250;18.848;2023-09-19T12:03:52;20.20;99.90
37356;DHT22;48747;50.250;18.848;2023-09-19T12:05:56;20.20;99.90
37356;DHT22;48747;50.250;18.848;2023-09-19T12:08:00;20.30;99.90
37356;DHT22;48747;50.250;18.848;2023-09-19T12:10:05;20.30;99.90
37356;DHT22;48747;50.250;18.848;2023-09-19T12:12:11;20.30;99.90
37356;DHT22;48747;50.250;18.848;2023-09-19T12:14:25;20.30;99.90
37356;DHT22;48747;50.250;18.848;2023-09-19T12:16:29;20.30;99.90
37356;DHT22;48747;50.250;18.848;2023-09-19T12:18:32;20.30;99.90
37356;DHT22;48747;50.250;18.848;2023-09-19T12:20:44;20.30;99.90
37356;DHT22;48747;50.250;18.848;2023-09-19T12:22:52;20.30;99.90
37356;DHT22;48747;50.250;18.848;2023-09-19T12:25:05;20.20;99.90
37356;DHT22;48747;50.250;18.848;2023-09-19T12:27:03;20.20;99.90
37356;DHT22;48747;50.250;18.848;2023-09-19T12:29:20;20.10;99.90
37356;DHT22;48747;50.250;18.848;2023-09-19T12:31:23;20.00;99.90
37356;DHT22;48747;50.250;18.848;2023-09-19T12:33:28;20.00;99.90
37356;DHT22;48747;50.250;18.848;2023-09-19T12:35:33;20.10;99.90
37356;DHT22;48747;50.250;18.848;2023-09-19T12:37:44;20.20;99.90
37356;DHT22;48747;50.250;18.848;2023-09-19T12:39:51;20.20;99.90
37356;DHT22;48747;50.250;18.848;2023-09-19T12:41:56;20.20;99.90
37356;DHT22;48747;50.250;18.848;2023-09-19T12:44:00;20.20;99.90
37356;DHT22;48747;50.250;18.848;2023-09-19T12:46:05;20.20;99.90
37356;DHT22;48747;50.250;18.848;2023-09-19T12:48:25;20.30;99.90
37356;DHT22;48747;50.250;18.848;2023-09-19T12:50:30;20.40;99.90
37356;DHT22;48747;50.250;18.848;2023-09-19T12:52:38;20.70;99.90
37356;DHT22;48747;50.250;18.848;2023-09-19T12:54:42;20.90;99.90
37356;DHT22;48747;50.250;18.848;2023-09-19T12:56:47;21.10;99.90
37356;DHT22;48747;50.250;18.848;2023-09-19T12:58:53;21.30;99.90
37356;DHT22;48747;50.250;18.848;2023-09-19T13:00:56;21.50;99.90
37356;DHT22;48747;50.250;18.848;2023-09-19T13:05:46;21.70;99.90
37356;DHT22;48747;50.250;18.848;2023-09-19T13:07:49;21.80;99.90
37356;DHT22;48747;50.250;18.848;2023-09-19T13:10:03;21.70;99.90
37356;DHT22;48747;50.250;18.848;2023-09-19T13:12:34;21.70;99.90
37356;DHT22;48747;50.250;18.848;2023-09-19T13:14:22;21.80;99.90
37356;DHT22;48747;50.250;18.848;2023-09-19T13:16:32;21.80;99.90
37356;DHT22;48747;50.250;18.848;2023-09-19T13:18:31;21.70;99.90
37356;DHT22;48747;50.250;18.848;2023-09-19T13:20:35;21.60;99.90
37356;DHT22;48747;50.250;18.848;2023-09-19T13:22:44;21.60;99.90